Time,TemperatureF,DewpointF,PressureIn,WindDirection,WindDirectionDegrees,WindSpeedMPH,WindSpeedGustMPH,Humidity,HourlyPrecipIn,Conditions,Clouds,dailyrainin,SolarRadiationWatts/m^2,SoftwareType,DateUTC
2013-10-17 00:13:00,30.0,29.0,-100.00,SW,219,0.0,2.0,98,0.00,,,0.15,0.000000,,2013-10-17 05:13:00,
2013-10-17 00:23:00,30.0,29.0,-100.00,SW,219,0.0,2.0,98,0.00,,,0.15,0.000000,,2013-10-17 05:23:00,
2013-10-17 00:34:00,30.0,29.0,-100.00,SW,219,0.0,2.0,98,0.00,,,0.15,0.000000,,2013-10-17 05:34:00,
2013-10-17 01:13:00,30.0,29.0,-100.00,SSW,209,0.0,2.0,98,0.00,,,0.09,0.000000,,2013-10-17 06:13:00,
2013-10-17 01:22:00,30.0,29.0,-100.00,SSW,209,0.0,2.0,98,0.00,,,0.09,0.000000,,2013-10-17 06:22:00,
2013-10-17 01:32:00,30.0,29.0,-100.00,SSW,209,0.0,2.0,98,0.00,,,0.09,0.000000,,2013-10-17 06:32:00,
2013-10-17 02:11:00,31.0,31.0,-100.00,South,187,0.0,2.0,98,0.00,,,0.08,0.000000,,2013-10-17 07:11:00,
2013-10-17 02:22:00,31.0,31.0,-100.00,South,187,0.0,2.0,98,0.00,,,0.08,0.000000,,2013-10-17 07:22:00,
2013-10-17 02:32:00,31.0,31.0,-100.00,South,187,0.0,2.0,98,0.00,,,0.08,0.000000,,2013-10-17 07:32:00,
2013-10-17 03:11:00,30.0,29.0,-100.00,SSW,203,0.0,1.0,98,0.00,,,0.06,0.000000,,2013-10-17 08:11:00,
2013-10-17 03:22:00,30.0,29.0,-100.00,SSW,203,0.0,1.0,98,0.00,,,0.06,0.000000,,2013-10-17 08:22:00,
2013-10-17 03:32:00,30.0,29.0,-100.00,SSW,203,0.0,1.0,98,0.00,,,0.06,0.000000,,2013-10-17 08:32:00,
2013-10-17 04:11:00,29.0,29.0,-100.00,South,184,0.0,2.0,98,0.00,,,0.05,0.000000,,2013-10-17 09:11:00,
2013-10-17 04:22:00,29.0,29.0,-100.00,South,184,0.0,2.0,98,0.00,,,0.05,0.000000,,2013-10-17 09:22:00,
2013-10-17 04:33:00,29.0,29.0,-100.00,South,184,0.0,2.0,98,0.00,,,0.05,0.000000,,2013-10-17 09:33:00,
2013-10-17 05:12:00,29.0,29.0,-100.00,South,183,0.0,0.0,98,0.00,,,0.04,0.000000,,2013-10-17 10:12:00,
2013-10-17 05:23:00,29.0,29.0,-100.00,South,183,0.0,0.0,98,0.00,,,0.04,0.000000,,2013-10-17 10:23:00,
2013-10-17 05:33:00,29.0,29.0,-100.00,South,183,0.0,0.0,98,0.00,,,0.04,0.000000,,2013-10-17 10:33:00,
2013-10-17 06:12:00,29.0,29.0,-100.00,SSW,195,0.0,3.0,98,0.00,,,0.03,0.000000,,2013-10-17 11:12:00,
2013-10-17 06:22:00,29.0,29.0,-100.00,SSW,195,0.0,3.0,98,0.00,,,0.03,0.000000,,2013-10-17 11:22:00,
2013-10-17 06:33:00,29.0,29.0,-100.00,SSW,195,0.0,3.0,98,0.00,,,0.03,0.000000,,2013-10-17 11:33:00,
2013-10-17 07:12:00,30.0,29.0,-100.00,South,178,0.0,0.0,98,0.00,,,-99.99,0.000000,,2013-10-17 12:12:00,
2013-10-17 07:22:00,30.0,29.0,-100.00,South,178,0.0,0.0,98,0.00,,,-99.99,0.000000,,2013-10-17 12:22:00,
2013-10-17 07:32:00,30.0,29.0,-100.00,South,178,0.0,0.0,98,0.00,,,-99.99,0.000000,,2013-10-17 12:32:00,
2013-10-17 08:11:00,29.0,29.0,-100.00,South,179,0.0,0.0,98,0.00,,,0.01,6.000000,,2013-10-17 13:11:00,
2013-10-17 08:22:00,29.0,29.0,-100.00,South,179,0.0,0.0,98,0.00,,,0.01,6.000000,,2013-10-17 13:22:00,
2013-10-17 08:33:00,29.0,29.0,-100.00,South,179,0.0,0.0,98,0.00,,,0.01,6.000000,,2013-10-17 13:33:00,
2013-10-17 09:11:00,32.0,32.0,-100.00,SSE,162,0.0,0.0,98,0.00,,,0.00,39.000000,,2013-10-17 14:11:00,
2013-10-17 09:21:00,32.0,32.0,-100.00,SSE,162,0.0,0.0,98,0.00,,,0.00,39.000000,,2013-10-17 14:21:00,
2013-10-17 09:32:00,32.0,32.0,-100.00,SSE,162,0.0,0.0,98,0.00,,,0.00,39.000000,,2013-10-17 14:32:00,
2013-10-17 10:11:00,35.0,34.0,-100.00,SW,217,0.0,4.0,98,0.01,,,0.01,126.000000,,2013-10-17 15:11:00,
2013-10-17 10:22:00,35.0,34.0,-100.00,SW,217,0.0,4.0,98,0.01,,,0.01,126.000000,,2013-10-17 15:22:00,
2013-10-17 10:33:00,35.0,34.0,-100.00,SW,217,0.0,4.0,98,0.01,,,0.01,126.000000,,2013-10-17 15:33:00,
2013-10-17 11:12:00,40.0,39.0,-100.00,SSW,196,0.0,6.0,95,0.00,,,0.01,275.000000,,2013-10-17 16:12:00,
2013-10-17 11:23:00,40.0,39.0,-100.00,SSW,196,0.0,6.0,95,0.00,,,0.01,275.000000,,2013-10-17 16:23:00,
2013-10-17 11:33:00,40.0,39.0,-100.00,SSW,196,0.0,6.0,95,0.00,,,0.01,275.000000,,2013-10-17 16:33:00,
2013-10-17 12:12:00,42.0,40.0,-100.00,SSW,204,0.0,4.0,94,0.00,,,0.01,167.000000,,2013-10-17 17:12:00,
2013-10-17 12:22:00,42.0,40.0,-100.00,SSW,204,0.0,4.0,94,0.00,,,0.01,167.000000,,2013-10-17 17:22:00,
2013-10-17 12:33:00,42.0,40.0,-100.00,SSW,204,0.0,4.0,94,0.00,,,0.01,167.000000,,2013-10-17 17:33:00,
2013-10-17 13:12:00,47.0,41.0,-100.00,West,269,3.0,7.0,78,0.00,,,0.01,310.000000,,2013-10-17 18:12:00,
2013-10-17 13:22:00,47.0,41.0,-100.00,West,269,3.0,7.0,78,0.00,,,0.01,310.000000,,2013-10-17 18:22:00,
2013-10-17 13:32:00,47.0,41.0,-100.00,West,269,3.0,7.0,78,0.00,,,0.01,310.000000,,2013-10-17 18:32:00,
2013-10-17 14:11:00,51.0,40.0,-100.00,WNW,283,3.0,7.0,66,0.00,,,0.01,458.000000,,2013-10-17 19:11:00,
2013-10-17 14:22:00,51.0,40.0,-100.00,WNW,283,3.0,7.0,66,0.00,,,0.01,458.000000,,2013-10-17 19:22:00,
2013-10-17 14:32:00,51.0,40.0,-100.00,WNW,283,3.0,7.0,66,0.00,,,0.01,458.000000,,2013-10-17 19:32:00,
2013-10-17 15:11:00,54.0,39.0,-100.00,NNW,340,6.0,13.0,57,0.00,,,0.01,570.000000,,2013-10-17 20:11:00,
2013-10-17 15:22:00,54.0,39.0,-100.00,NNW,340,6.0,13.0,57,0.00,,,0.01,570.000000,,2013-10-17 20:22:00,
2013-10-17 15:32:00,54.0,39.0,-100.00,NNW,340,6.0,13.0,57,0.00,,,0.01,570.000000,,2013-10-17 20:32:00,
2013-10-17 16:11:00,52.0,36.0,-100.00,NW,321,4.0,9.0,55,0.00,,,0.01,476.000000,,2013-10-17 21:11:00,
2013-10-17 16:22:00,52.0,36.0,-100.00,NW,321,4.0,9.0,55,0.00,,,0.01,476.000000,,2013-10-17 21:22:00,
2013-10-17 16:34:00,52.0,36.0,-100.00,NW,321,4.0,9.0,55,0.00,,,0.01,476.000000,,2013-10-17 21:34:00,
2013-10-17 17:14:00,52.0,37.0,-100.00,NNW,338,5.0,10.0,57,0.00,,,0.01,234.000000,,2013-10-17 22:14:00,
2013-10-17 17:24:00,52.0,37.0,-100.00,NNW,338,5.0,10.0,57,0.00,,,0.01,234.000000,,2013-10-17 22:24:00,
2013-10-17 17:33:00,52.0,37.0,-100.00,NNW,338,5.0,10.0,57,0.00,,,0.01,234.000000,,2013-10-17 22:33:00,
2013-10-17 18:13:00,49.0,38.0,-100.00,NW,321,2.0,5.0,66,0.00,,,0.01,93.000000,,2013-10-17 23:13:00,
2013-10-17 18:22:00,49.0,38.0,-100.00,NW,321,2.0,5.0,66,0.00,,,0.01,93.000000,,2013-10-17 23:22:00,
2013-10-17 18:34:00,49.0,38.0,-100.00,NW,321,2.0,5.0,66,0.00,,,0.01,93.000000,,2013-10-17 23:34:00,
2013-10-17 19:12:00,45.0,38.0,-100.00,North,349,2.0,7.0,75,0.00,,,0.01,12.000000,,2013-10-18 00:12:00,
2013-10-17 19:22:00,45.0,38.0,-100.00,North,349,2.0,7.0,75,0.00,,,0.01,12.000000,,2013-10-18 00:22:00,
2013-10-17 19:33:00,45.0,38.0,-100.00,North,349,2.0,7.0,75,0.00,,,0.01,12.000000,,2013-10-18 00:33:00,
2013-10-17 20:12:00,43.0,38.0,-100.00,NNW,343,2.0,5.0,82,0.00,,,0.01,0.000000,,2013-10-18 01:12:00,
2013-10-17 20:22:00,43.0,38.0,-100.00,NNW,343,2.0,5.0,82,0.00,,,0.01,0.000000,,2013-10-18 01:22:00,
2013-10-17 20:32:00,43.0,38.0,-100.00,NNW,343,2.0,5.0,82,0.00,,,0.01,0.000000,,2013-10-18 01:32:00,
2013-10-17 21:11:00,39.0,37.0,-100.00,SW,236,0.0,3.0,93,0.00,,,0.01,0.000000,,2013-10-18 02:11:00,
2013-10-17 21:22:00,39.0,37.0,-100.00,SW,236,0.0,3.0,93,0.00,,,0.01,0.000000,,2013-10-18 02:22:00,
2013-10-17 21:32:00,39.0,37.0,-100.00,SW,236,0.0,3.0,93,0.00,,,0.01,0.000000,,2013-10-18 02:32:00,
2013-10-17 22:11:00,37.0,36.0,-100.00,SSE,159,0.0,0.0,95,0.00,,,0.01,0.000000,,2013-10-18 03:11:00,
2013-10-17 22:22:00,37.0,36.0,-100.00,SSE,159,0.0,0.0,95,0.00,,,0.01,0.000000,,2013-10-18 03:22:00,
2013-10-17 22:35:00,37.0,36.0,-100.00,SSE,159,0.0,0.0,95,0.00,,,0.01,0.000000,,2013-10-18 03:35:00,
2013-10-17 23:14:00,37.0,36.0,-100.00,South,191,0.0,0.0,97,0.00,,,0.01,0.000000,,2013-10-18 04:14:00,
2013-10-17 23:24:00,37.0,36.0,-100.00,South,191,0.0,0.0,97,0.00,,,0.01,0.000000,,2013-10-18 04:24:00,
2013-10-17 23:34:00,37.0,36.0,-100.00,South,191,0.0,0.0,97,0.00,,,0.01,0.000000,,2013-10-18 04:34:00,